Flight Track Log - Related Links

Times and Time Zones

All times are in EDT time to prevent confusion due to time zone crossing. See the N45NS flight status page for this flight to view local times or setup timezone preferences in your user account.

Time Position Orientation Groundspeed Altitude Reporting Facility
EDT Latitude Longitude Course Direction KTS MPH feet Rate Location/Type
Thu 12:02:39 PM 29.5436 -98.4853 308° West 152 175 1,400  Level Houston Center
Thu 12:03:34 PM 29.5753 -98.5319 308° West 218 251 3,800 2,745 Climbing Houston Center
Thu 12:04:13 PM 29.6028 -98.5608 318° Northwest 223 257 5,700 3,049 Climbing Houston Center
Thu 12:04:35 PM 29.6286 -98.5642 354° North 252 290 6,900 3,194 Climbing Houston Center
Thu 12:05:15 PM 29.6747 -98.5428 22° Northeast 262 302 9,000 2,900 Climbing Houston Center
Thu 12:05:35 PM 29.6831 -98.5192 68° East 282 325 9,800 2,516 Climbing Houston Center
Thu 12:06:17 PM 29.6822 -98.4553 91° East 280 322 11,600 2,365 Climbing Houston Center
Thu 12:07:19 PM 29.6775 -98.3603 93° East 295 339 13,900 2,323 Climbing Houston Center
Thu 12:08:21 PM 29.6733 -98.2506 92° East 316 364 16,400 2,371 Climbing Houston Center
Thu 12:09:23 PM 29.6683 -98.1486 93° East 320 368 18,800 2,371 Climbing Houston Center
Thu 12:10:25 PM 29.6628 -98.0369 93° East 324 373 21,300 2,468 Climbing Houston Center
Thu 12:11:27 PM 29.6586 -97.9386 93° East 310 357 23,900 2,371 Climbing Houston Center
Thu 12:12:29 PM 29.6558 -97.8422 92° East 303 349 26,200 2,081 Climbing Houston Center
Thu 12:13:31 PM 29.6569 -97.7528 89° East 301 346 28,200 1,645 Climbing Houston Center
Thu 12:14:33 PM 29.6581 -97.6581 89° East 297 342 29,600 1,258 Climbing Houston Center
Thu 12:15:35 PM 29.6589 -97.5322 90° East 322 371 30,800 1,161 Climbing Houston Center
Thu 12:16:37 PM 29.6600 -97.4186 89° East 349 402 32,000 1,258 Climbing Houston Center
Thu 12:17:39 PM 29.6597 -97.3039 90° East 358 412 33,400 1,306 Climbing Houston Center
Thu 12:18:41 PM 29.6614 -97.1867 89° East 364 419 34,700 1,306 Climbing Houston Center
Thu 12:19:43 PM 29.6617 -97.0692 90° East 366 421 36,100 1,258 Climbing Houston Center
Thu 12:20:45 PM 29.6617 -96.9525 90° East 364 419 37,300 1,065 Climbing Houston Center
Thu 12:21:47 PM 29.6619 -96.8339 90° East 366 421 38,300 823 Climbing Houston Center
Thu 12:22:49 PM 29.6625 -96.7128 90° East 373 429 39,000 339 Climbing Houston Center
Thu 12:23:51 PM 29.6619 -96.5597 90° East 390 449 39,000 435 Level Houston Center
Thu 12:24:53 PM 29.6617 -96.4242 90° East 416 479 39,900 919 Climbing Houston Center
Thu 12:25:55 PM 29.6608 -96.2911 90° East 417 480 40,900 581 Climbing Houston Center
Thu 12:26:57 PM 29.6603 -96.1556 90° East 422 486 41,100 774 Climbing Houston Center
Thu 12:27:59 PM 29.6608 -96.0189 90° East 427 491 42,500 1,210 Climbing Houston Center
Thu 12:29:01 PM 29.6594 -95.8939 91° East 406 467 43,600 726 Climbing Houston Center
Thu 12:30:03 PM 29.6586 -95.7458 90° East 388 447 44,000 143 Climbing Houston Center
Thu 12:31:07 PM 29.6592 -95.6253 90° East 378 435 43,900 49 Descending Houston Center
Thu 12:32:06 PM 29.6578 -95.5044 91° East 379 436 44,100 149 Climbing Houston Center
Thu 12:33:08 PM 29.6769 -95.3839 80° East 386 444 44,200  Climbing Houston Center
Thu 12:34:11 PM 29.7181 -95.2683 68° East 384 442 44,100 -242 Descending Houston Center
Thu 12:35:12 PM 29.7536 -95.1447 72° East 392 451 43,700 -244 Descending Houston Center
Thu 12:36:14 PM 29.7878 -95.0236 72° East 394 453 43,600 97 Descending Houston Center
Thu 12:37:16 PM 29.8150 -94.9031 75° East 389 448 43,900 194 Climbing Houston Center
Thu 12:38:18 PM 29.8333 -94.7814 80° East 387 445 44,000 -48 Climbing Houston Center
Thu 12:39:20 PM 29.8564 -94.6347 80° East 386 444 43,800  Descending Houston Center
Thu 12:40:22 PM 29.8753 -94.5094 80° East 397 457 44,000 194 Climbing Houston Center
Thu 12:41:24 PM 29.8933 -94.3864 80° East 392 451 44,200 -242 Climbing Houston Center
Thu 12:42:26 PM 29.9128 -94.2586 80° East 404 465 43,500 -629 Descending Houston Center
Thu 12:43:28 PM 29.9347 -94.1097 80° East 450 518 42,900 -242 Descending Houston Center
Thu 12:44:30 PM 29.9575 -93.9631 80° East 466 536 43,000 48 Climbing Houston Center
Thu 12:45:32 PM 29.9781 -93.8150 81° East 471 542 43,000  Level Houston Center
Thu 12:46:34 PM 30.0050 -93.6328 80° East 484 557 43,000  Level Houston Center
Thu 12:47:36 PM 30.0253 -93.4831 81° East 481 554 43,000  Level Houston Center
Thu 12:48:38 PM 30.0464 -93.3353 81° East 477 549 43,000  Level Houston Center
Thu 12:49:40 PM 30.0683 -93.1869 80° East 474 545 43,000  Level Houston Center
Thu 12:50:42 PM 30.0894 -93.0397 81° East 472 543 43,000  Level Houston Center
Thu 12:51:44 PM 30.1142 -92.8614 81° East 470 541 43,000  Level Houston Center
Thu 12:52:46 PM 30.1358 -92.7125 80° East 472 543 43,000  Level Houston Center
Thu 12:53:48 PM 30.1558 -92.5644 81° East 470 541 43,000  Level Houston Center
Thu 12:54:50 PM 30.1764 -92.4172 81° East 468 539 43,000  Level Houston Center
Thu 12:55:51 PM 30.1956 -92.2692 81° East 467 537 43,000  Level Houston Center
Thu 12:56:53 PM 30.2178 -92.1108 81° East 464 534 43,000  Level Houston Center
Thu 12:57:58 PM 30.2375 -91.9656 81° East 462 532 43,000  Level Houston Center
Thu 12:58:57 PM 30.2567 -91.8211 81° East 457 526 43,000  Level Houston Center
Thu 12:59:59 PM 30.2775 -91.6547 82° East 457 526 43,000  Level Houston Center
Thu 01:01:01 PM 30.2975 -91.5100 81° East 457 526 43,000  Level Houston Center
Thu 01:02:03 PM 30.3153 -91.3650 82° East 456 525 43,000  Level Houston Center
Thu 01:03:05 PM 30.3342 -91.2189 81° East 459 528 43,000  Level Houston Center
Thu 01:04:06 PM 30.3558 -91.0436 82° East 459 528 43,000  Level Houston Center
Thu 01:05:08 PM 30.3744 -90.8958 82° East 463 533 43,000  Level Houston Center
Thu 01:06:10 PM 30.3925 -90.7494 82° East 461 531 43,000  Level Houston Center
Thu 01:07:12 PM 30.4117 -90.6014 81° East 464 534 43,000  Level Houston Center
Thu 01:08:14 PM 30.4292 -90.4528 82° East 465 535 43,000  Level Houston Center
Thu 01:09:16 PM 30.4464 -90.3058 82° East 463 533 43,000  Level Houston Center
Thu 01:10:18 PM 30.4631 -90.1578 83° East 463 533 43,000  Level Houston Center
Thu 01:11:20 PM 30.4858 -89.9797 82° East 461 531 43,000  Level Houston Center
Thu 01:12:22 PM 30.5064 -89.8292 81° East 462 532 43,000  Level Houston Center
Thu 01:13:23 PM 30.5219 -89.6758 83° East 466 536 43,000  Level Houston Center
Thu 01:14:25 PM 30.5206 -89.5244 91° East 463 533 43,000  Level Houston Center
Thu 01:15:27 PM 30.5133 -89.3742 93° East 466 536 43,000  Level Houston Center
Thu 01:16:29 PM 30.5067 -89.2231 93° East 469 540 43,000  Level Houston Center
Thu 01:17:31 PM 30.5008 -89.0722 93° East 469 540 43,000  Level Houston Center
Thu 01:18:33 PM 30.4956 -88.9225 92° East 467 537 43,000  Level Houston Center
Thu 01:19:35 PM 30.4847 -88.7733 95° East 466 536 43,000  Level Houston Center
Thu 01:20:37 PM 30.4789 -88.5958 92° East 464 534 43,000  Level Houston Center
Thu 01:21:39 PM 30.4725 -88.4483 93° East 462 532 43,000  Level Houston Center
Thu 01:22:41 PM 30.4661 -88.3008 93° East 462 532 43,000  Level Houston Center
Thu 01:23:43 PM 30.4597 -88.1544 93° East 460 529 43,000  Level Houston Center
Thu 01:24:45 PM 30.4525 -88.0081 93° East 460 529 43,000  Level Houston Center
Thu 01:25:46 PM 30.4439 -87.8325 93° East 459 528 43,000  Level Houston Center
Thu 01:26:48 PM 30.4369 -87.6858 93° East 460 529 43,000  Level Houston Center
Thu 01:27:50 PM 30.4300 -87.5400 93° East 458 527 43,000  Level Houston Center
Thu 01:28:52 PM 30.4278 -87.3947 91° East 456 525 43,000  Level Houston Center
Thu 01:29:54 PM 30.4422 -87.2492 83° East 456 525 43,000  Level Houston Center
Thu 01:30:56 PM 30.4542 -87.1050 84° East 453 521 43,000  Level Houston Center
Thu 01:31:58 PM 30.4678 -86.9319 85° East 452 520 43,000  Level Houston Center
Thu 01:33:00 PM 30.4822 -86.7872 83° East 453 521 43,000  Level Houston Center
Thu 01:34:02 PM 30.4944 -86.6453 84° East 455 524 43,000  Level Houston Center
Thu 01:35:17 PM 30.4983 -86.4606 89° East 451 519 43,000  Level Jacksonville Center
Thu 01:36:17 PM 30.4858 -86.3131 96° East 451 519 43,000  Level Jacksonville Center
Thu 01:37:17 PM 30.4731 -86.1656 96° East 456 525 43,000  Level Jacksonville Center
Thu 01:38:17 PM 30.4600 -86.0156 96° East 466 536 43,000 -350 Level Jacksonville Center
Thu 01:39:17 PM 30.4469 -85.8683 96° East 466 536 42,300 -843 Descending Jacksonville Center
Thu 01:40:18 PM 30.4336 -85.7186 96° East 466 536 41,300 -950 Descending Jacksonville Center
Thu 01:41:17 PM 30.4181 -85.5664 97° East 466 536 40,400 -958 Descending Jacksonville Center
Thu 01:42:17 PM 30.4064 -85.4142 95° East 466 536 39,400 -1,000 Descending Jacksonville Center
Thu 01:43:17 PM 30.3925 -85.2694 96° East 461 531 38,400 -1,000 Descending Jacksonville Center
Thu 01:44:17 PM 30.3783 -85.1269 97° East 455 524 37,400 -1,000 Descending Jacksonville Center
Thu 01:45:17 PM 30.3622 -84.9847 97° East 449 517 36,400 -992 Descending Jacksonville Center
Thu 01:46:18 PM 30.3497 -84.8447 96° East 441 507 35,400 -1,000 Descending Jacksonville Center
Thu 01:47:17 PM 30.3350 -84.7047 97° East 441 507 34,400 -1,008 Descending Jacksonville Center
Thu 01:48:17 PM 30.3183 -84.5625 98° East 446 513 33,400 -950 Descending Jacksonville Center
Thu 01:49:17 PM 30.3075 -84.4228 95° East 446 513 32,500 -950 Descending Jacksonville Center
Thu 01:50:17 PM 30.2944 -84.2856 96° East 446 513 31,500 -1,050 Descending Jacksonville Center
Thu 01:51:17 PM 30.2792 -84.1361 97° East 440 506 30,400 -942 Descending Jacksonville Center
Thu 01:52:18 PM 30.2636 -84.0061 98° East 435 501 29,600 -850 Descending Jacksonville Center
Thu 01:53:17 PM 30.2503 -83.8592 96° East 448 516 28,700 -958 Descending Jacksonville Center
Thu 01:54:17 PM 30.2325 -83.7125 98° East 459 528 27,700 -1,000 Descending Jacksonville Center
Thu 01:55:17 PM 30.2167 -83.5656 97° East 464 534 26,700 -1,000 Descending Jacksonville Center
Thu 01:56:17 PM 30.2028 -83.4214 96° East 464 534 25,700 -1,000 Descending Jacksonville Center
Thu 01:57:17 PM 30.1886 -83.2819 97° East 456 525 24,700 -1,000 Descending Jacksonville Center
Thu 01:58:17 PM 30.1722 -83.1400 98° East 448 516 23,700 -850 Descending Jacksonville Center
Thu 01:59:17 PM 30.1558 -83.0006 98° East 448 516 23,000 -350 Descending Jacksonville Center
Thu 02:00:17 PM 30.1411 -82.8614 97° East 443 510 23,000 -595 Level Jacksonville Center
Thu 02:01:18 PM 30.1244 -82.7219 98° East 443 510 21,800 -1,259 Descending Jacksonville Center
Thu 02:01:38 PM 30.1139 -82.6619 101° East 446 513 21,300 -1,322 Descending Jacksonville Center
Thu 02:02:17 PM 30.1094 -82.5828 94° East 448 516 20,500 -1,469 Descending Jacksonville Center
Thu 02:02:27 PM 30.1053 -82.5564 100° East 436 502 20,100 -1,500 Descending Jacksonville Center
Thu 02:03:17 PM 30.0925 -82.4533 98° East 427 491 19,000 -1,574 Descending Jacksonville Center
Thu 02:03:28 PM 30.0881 -82.4172 98° East 402 463 18,500 -1,400 Descending Jacksonville Center
Thu 02:04:17 PM 30.0772 -82.3261 98° East 413 475 17,600 -1,377 Descending Jacksonville Center
Thu 02:04:29 PM 30.0731 -82.2853 97° East 398 458 17,100 -1,726 Descending Jacksonville Center
Thu 02:05:30 PM 30.0578 -82.1656 98° East 384 442 15,500 -1,722 Descending Jacksonville Center
Thu 02:06:17 PM 30.0489 -82.0719 96° East 376 433 14,000 -1,869 Descending Jacksonville Center
Thu 02:06:31 PM 30.0444 -82.0431 100° East 380 437 13,600 -2,000 Descending Jacksonville Center
Thu 02:07:17 PM 30.0333 -81.9519 98° East 367 422 12,000 -1,970 Descending Jacksonville Center
Thu 02:07:38 PM 30.0269 -81.9139 101° East 370 426 11,400 -2,000 Descending Jacksonville Center
Thu 02:08:17 PM 30.0200 -81.8394 96° East 362 417 10,000 -1,964 Descending Jacksonville Center
Thu 02:08:33 PM 30.0156 -81.8083 99° East 359 413 9,600 -1,900 Descending Jacksonville Center
Thu 02:09:17 PM 30.0067 -81.7342 98° East 344 396 8,100 -2,060 Descending Jacksonville Center
Thu 02:09:40 PM 30.0022 -81.7053 100° East 286 329 7,300 -2,143 Descending Jacksonville Center
Thu 02:10:41 PM 29.9928 -81.6144 97° East 257 296 5,100 -2,289 Descending Jacksonville Center
Thu 02:11:17 PM 29.9861 -81.5664 99° East 277 319 3,600 -2,066 Descending Jacksonville Center
Thu 02:11:42 PM 29.9817 -81.5331 99° East 261 300 3,000 -907 Descending Jacksonville Center
Thu 02:12:43 PM 29.9869 -81.4536 86° East 247 284 2,300 -984 Descending Jacksonville Center
Thu 02:13:44 PM 29.9906 -81.3889 86° East 185 213 1,000 -1,279 Descending Jacksonville Center
Thu 02:15:00 PM 29.9592 -81.3397 101° East  Level Estimated
Thu 02:22:00 PM 29.9592 -81.3397 101° East  Level Estimated

Login

Don't have an account? Register now (free) for customized features, flight alerts, and more!